sensor_id;sensor_type;location;lat;lon;timestamp;temperature;humidity
20526;DHT22;10421;49.142;9.232;2023-07-30T00:00:06;22.40;99.90
20526;DHT22;10421;49.142;9.232;2023-07-30T00:02:33;22.40;99.90
20526;DHT22;10421;49.142;9.232;2023-07-30T00:05:00;22.50;99.90
20526;DHT22;10421;49.142;9.232;2023-07-30T00:07:28;22.50;99.90
20526;DHT22;10421;49.142;9.232;2023-07-30T00:09:54;22.50;99.90
20526;DHT22;10421;49.142;9.232;2023-07-30T00:12:21;22.50;99.90
20526;DHT22;10421;49.142;9.232;2023-07-30T00:14:48;22.50;99.90
20526;DHT22;10421;49.142;9.232;2023-07-30T00:17:14;22.50;99.90
20526;DHT22;10421;49.142;9.232;2023-07-30T00:19:41;22.50;99.90
20526;DHT22;10421;49.142;9.232;2023-07-30T00:22:08;22.40;99.90
20526;DHT22;10421;49.142;9.232;2023-07-30T00:24:36;22.30;99.90
20526;DHT22;10421;49.142;9.232;2023-07-30T00:27:03;22.30;99.90
20526;DHT22;10421;49.142;9.232;2023-07-30T00:29:30;22.20;99.90
20526;DHT22;10421;49.142;9.232;2023-07-30T00:31:56;22.20;99.90
20526;DHT22;10421;49.142;9.232;2023-07-30T00:34:23;22.10;99.90
20526;DHT22;10421;49.142;9.232;2023-07-30T00:36:50;22.10;99.90
20526;DHT22;10421;49.142;9.232;2023-07-30T00:39:16;21.90;99.90
20526;DHT22;10421;49.142;9.232;2023-07-30T00:41:44;21.90;99.90
20526;DHT22;10421;49.142;9.232;2023-07-30T00:44:11;21.90;99.90
20526;DHT22;10421;49.142;9.232;2023-07-30T00:46:38;21.90;99.90
20526;DHT22;10421;49.142;9.232;2023-07-30T00:49:05;21.90;99.90
20526;DHT22;10421;49.142;9.232;2023-07-30T00:51:33;21.90;99.90
20526;DHT22;10421;49.142;9.232;2023-07-30T00:54:00;21.80;99.90
20526;DHT22;10421;49.142;9.232;2023-07-30T00:56:27;21.90;99.90
20526;DHT22;10421;49.142;9.232;2023-07-30T00:58:56;22.00;99.90
20526;DHT22;10421;49.142;9.232;2023-07-30T01:01:23;22.00;99.90
20526;DHT22;10421;49.142;9.232;2023-07-30T01:03:50;22.00;99.90
20526;DHT22;10421;49.142;9.232;2023-07-30T01:06:17;22.00;99.90
20526;DHT22;10421;49.142;9.232;2023-07-30T01:08:45;22.10;99.90
20526;DHT22;10421;49.142;9.232;2023-07-30T01:11:12;22.10;99.90
20526;DHT22;10421;49.142;9.232;2023-07-30T01:13:41;22.10;99.90
20526;DHT22;10421;49.142;9.232;2023-07-30T01:16:10;22.00;99.90
20526;DHT22;10421;49.142;9.232;2023-07-30T01:18:37;22.10;99.90
20526;DHT22;10421;49.142;9.232;2023-07-30T01:21:07;22.10;99.90
20526;DHT22;10421;49.142;9.232;2023-07-30T01:23:34;22.10;99.90
20526;DHT22;10421;49.142;9.232;2023-07-30T01:26:04;22.20;99.90
20526;DHT22;10421;49.142;9.232;2023-07-30T01:28:37;22.20;99.90
20526;DHT22;10421;49.142;9.232;2023-07-30T01:31:06;22.10;99.90
20526;DHT22;10421;49.142;9.232;2023-07-30T01:33:34;22.10;99.90
20526;DHT22;10421;49.142;9.232;2023-07-30T01:39:25;21.90;99.90
20526;DHT22;10421;49.142;9.232;2023-07-30T01:41:53;21.90;99.90
20526;DHT22;10421;49.142;9.232;2023-07-30T01:44:20;21.90;99.90
20526;DHT22;10421;49.142;9.232;2023-07-30T01:46:46;21.90;99.90
20526;DHT22;10421;49.142;9.232;2023-07-30T01:49:13;22.00;99.90
20526;DHT22;10421;49.142;9.232;2023-07-30T01:51:40;21.90;99.90
20526;DHT22;10421;49.142;9.232;2023-07-30T01:54:07;21.90;99.90
20526;DHT22;10421;49.142;9.232;2023-07-30T01:56:35;21.90;99.90
20526;DHT22;10421;49.142;9.232;2023-07-30T01:59:01;21.90;99.90
20526;DHT22;10421;49.142;9.232;2023-07-30T02:01:28;21.90;99.90
20526;DHT22;10421;49.142;9.232;2023-07-30T02:03:55;22.00;99.90
20526;DHT22;10421;49.142;9.232;2023-07-30T02:06:21;22.00;99.90
20526;DHT22;10421;49.142;9.232;2023-07-30T02:08:48;22.00;99.90
20526;DHT22;10421;49.142;9.232;2023-07-30T02:11:15;22.10;99.90
20526;DHT22;10421;49.142;9.232;2023-07-30T02:13:43;22.10;99.90
20526;DHT22;10421;49.142;9.232;2023-07-30T02:16:10;22.10;99.90
20526;DHT22;10421;49.142;9.232;2023-07-30T02:18:36;22.10;99.90
20526;DHT22;10421;49.142;9.232;2023-07-30T02:21:03;22.00;99.90
20526;DHT22;10421;49.142;9.232;2023-07-30T02:23:30;22.00;99.90
20526;DHT22;10421;49.142;9.232;2023-07-30T02:25:56;22.00;99.90
20526;DHT22;10421;49.142;9.232;2023-07-30T02:28:23;22.00;99.90
20526;DHT22;10421;49.142;9.232;2023-07-30T02:30:51;21.90;99.90
20526;DHT22;10421;49.142;9.232;2023-07-30T02:33:18;21.90;99.90
20526;DHT22;10421;49.142;9.232;2023-07-30T02:35:45;21.90;99.90
20526;DHT22;10421;49.142;9.232;2023-07-30T02:38:11;21.90;99.90
20526;DHT22;10421;49.142;9.232;2023-07-30T02:40:38;22.10;99.90
20526;DHT22;10421;49.142;9.232;2023-07-30T02:43:05;22.10;99.90
20526;DHT22;10421;49.142;9.232;2023-07-30T02:45:31;22.10;99.90
20526;DHT22;10421;49.142;9.232;2023-07-30T02:47:59;22.10;99.90
20526;DHT22;10421;49.142;9.232;2023-07-30T02:50:26;22.10;99.90
20526;DHT22;10421;49.142;9.232;2023-07-30T02:52:53;22.10;99.90
20526;DHT22;10421;49.142;9.232;2023-07-30T02:55:19;22.00;99.90
20526;DHT22;10421;49.142;9.232;2023-07-30T02:57:46;21.90;99.90
20526;DHT22;10421;49.142;9.232;2023-07-30T03:00:13;21.90;99.90
20526;DHT22;10421;49.142;9.232;2023-07-30T03:02:40;21.80;99.90
20526;DHT22;10421;49.142;9.232;2023-07-30T03:05:08;21.80;99.90
20526;DHT22;10421;49.142;9.232;2023-07-30T03:07:35;21.80;99.90
20526;DHT22;10421;49.142;9.232;2023-07-30T03:10:02;21.80;99.90
20526;DHT22;10421;49.142;9.232;2023-07-30T03:12:29;21.70;99.90
20526;DHT22;10421;49.142;9.232;2023-07-30T03:14:56;21.80;99.90
20526;DHT22;10421;49.142;9.232;2023-07-30T03:17:22;21.70;99.90
20526;DHT22;10421;49.142;9.232;2023-07-30T03:19:49;21.70;99.90
20526;DHT22;10421;49.142;9.232;2023-07-30T03:22:17;21.60;99.90
20526;DHT22;10421;49.142;9.232;2023-07-30T03:24:45;21.60;99.90
20526;DHT22;10421;49.142;9.232;2023-07-30T03:27:12;21.70;99.90
20526;DHT22;10421;49.142;9.232;2023-07-30T03:29:39;21.70;99.90
20526;DHT22;10421;49.142;9.232;2023-07-30T03:32:06;21.70;99.90
20526;DHT22;10421;49.142;9.232;2023-07-30T03:34:33;21.80;99.90
20526;DHT22;10421;49.142;9.232;2023-07-30T03:37:00;21.80;99.90
20526;DHT22;10421;49.142;9.232;2023-07-30T03:39:28;21.80;99.90
20526;DHT22;10421;49.142;9.232;2023-07-30T03:41:55;21.90;99.90
20526;DHT22;10421;49.142;9.232;2023-07-30T03:44:21;21.90;99.90
20526;DHT22;10421;49.142;9.232;2023-07-30T03:46:48;22.00;99.90
20526;DHT22;10421;49.142;9.232;2023-07-30T03:49:15;21.90;99.90
20526;DHT22;10421;49.142;9.232;2023-07-30T03:51:42;21.90;99.90
20526;DHT22;10421;49.142;9.232;2023-07-30T03:54:08;22.00;99.90
20526;DHT22;10421;49.142;9.232;2023-07-30T03:56:36;22.00;99.90
20526;DHT22;10421;49.142;9.232;2023-07-30T03:59:03;22.00;99.90
20526;DHT22;10421;49.142;9.232;2023-07-30T04:01:30;22.00;99.90
20526;DHT22;10421;49.142;9.232;2023-07-30T04:03:56;22.10;99.90
20526;DHT22;10421;49.142;9.232;2023-07-30T04:06:23;22.00;99.90
20526;DHT22;10421;49.142;9.232;2023-07-30T04:08:50;22.10;99.90
20526;DHT22;10421;49.142;9.232;2023-07-30T04:11:17;22.10;99.90
20526;DHT22;10421;49.142;9.232;2023-07-30T04:13:45;22.10;99.90
20526;DHT22;10421;49.142;9.232;2023-07-30T04:16:12;22.10;99.90
20526;DHT22;10421;49.142;9.232;2023-07-30T04:18:38;22.10;99.90
20526;DHT22;10421;49.142;9.232;2023-07-30T04:21:05;22.00;99.90
20526;DHT22;10421;49.142;9.232;2023-07-30T04:23:32;21.90;99.90
20526;DHT22;10421;49.142;9.232;2023-07-30T04:25:58;22.00;99.90
20526;DHT22;10421;49.142;9.232;2023-07-30T04:28:25;22.00;99.90
20526;DHT22;10421;49.142;9.232;2023-07-30T04:30:53;22.00;99.90
20526;DHT22;10421;49.142;9.232;2023-07-30T04:33:20;21.90;99.90
20526;DHT22;10421;49.142;9.232;2023-07-30T04:35:46;21.90;99.90
20526;DHT22;10421;49.142;9.232;2023-07-30T04:38:13;21.80;99.90
20526;DHT22;10421;49.142;9.232;2023-07-30T04:40:40;21.90;99.90
20526;DHT22;10421;49.142;9.232;2023-07-30T04:43:07;21.90;99.90
20526;DHT22;10421;49.142;9.232;2023-07-30T04:45:33;21.90;99.90
20526;DHT22;10421;49.142;9.232;2023-07-30T04:48:01;21.90;99.90
20526;DHT22;10421;49.142;9.232;2023-07-30T04:50:28;21.90;99.90
20526;DHT22;10421;49.142;9.232;2023-07-30T04:52:55;21.80;99.90
20526;DHT22;10421;49.142;9.232;2023-07-30T04:55:22;21.80;99.90
20526;DHT22;10421;49.142;9.232;2023-07-30T04:57:48;21.80;99.90
20526;DHT22;10421;49.142;9.232;2023-07-30T05:00:15;21.80;99.90
20526;DHT22;10421;49.142;9.232;2023-07-30T05:02:42;21.80;99.90
20526;DHT22;10421;49.142;9.232;2023-07-30T05:05:10;21.80;99.90
20526;DHT22;10421;49.142;9.232;2023-07-30T05:07:37;21.70;99.90
20526;DHT22;10421;49.142;9.232;2023-07-30T05:10:05;21.80;99.90
20526;DHT22;10421;49.142;9.232;2023-07-30T05:12:35;21.70;99.90
20526;DHT22;10421;49.142;9.232;2023-07-30T05:15:02;21.80;99.90
20526;DHT22;10421;49.142;9.232;2023-07-30T05:17:29;21.70;99.90
20526;DHT22;10421;49.142;9.232;2023-07-30T05:19:56;21.50;99.90
20526;DHT22;10421;49.142;9.232;2023-07-30T05:22:24;21.40;99.90
20526;DHT22;10421;49.142;9.232;2023-07-30T05:24:51;21.30;99.90
20526;DHT22;10421;49.142;9.232;2023-07-30T05:27:18;21.30;99.90
20526;DHT22;10421;49.142;9.232;2023-07-30T05:29:45;21.20;99.90
20526;DHT22;10421;49.142;9.232;2023-07-30T05:32:11;21.10;99.90
20526;DHT22;10421;49.142;9.232;2023-07-30T05:34:38;21.10;99.90
20526;DHT22;10421;49.142;9.232;2023-07-30T05:37:05;21.10;99.90
20526;DHT22;10421;49.142;9.232;2023-07-30T05:39:33;21.10;99.90
20526;DHT22;10421;49.142;9.232;2023-07-30T05:42:00;21.10;99.90
20526;DHT22;10421;49.142;9.232;2023-07-30T05:44:26;21.10;99.90
20526;DHT22;10421;49.142;9.232;2023-07-30T05:46:53;21.10;99.90
20526;DHT22;10421;49.142;9.232;2023-07-30T05:49:20;21.10;99.90
20526;DHT22;10421;49.142;9.232;2023-07-30T05:51:46;21.30;99.90
20526;DHT22;10421;49.142;9.232;2023-07-30T05:54:13;21.10;99.90
20526;DHT22;10421;49.142;9.232;2023-07-30T05:56:41;21.10;99.90
20526;DHT22;10421;49.142;9.232;2023-07-30T05:59:08;21.10;99.90
20526;DHT22;10421;49.142;9.232;2023-07-30T06:01:34;21.20;99.90
20526;DHT22;10421;49.142;9.232;2023-07-30T06:04:01;21.20;99.90
20526;DHT22;10421;49.142;9.232;2023-07-30T06:06:29;21.30;99.90
20526;DHT22;10421;49.142;9.232;2023-07-30T06:08:56;21.30;99.90
20526;DHT22;10421;49.142;9.232;2023-07-30T06:11:23;21.40;99.90
20526;DHT22;10421;49.142;9.232;2023-07-30T06:13:51;21.50;99.90
20526;DHT22;10421;49.142;9.232;2023-07-30T06:16:21;21.50;99.90
20526;DHT22;10421;49.142;9.232;2023-07-30T06:18:49;21.50;99.90
20526;DHT22;10421;49.142;9.232;2023-07-30T06:21:15;21.50;99.90
20526;DHT22;10421;49.142;9.232;2023-07-30T06:23:42;21.50;99.90
20526;DHT22;10421;49.142;9.232;2023-07-30T06:26:09;21.50;99.90
20526;DHT22;10421;49.142;9.232;2023-07-30T06:28:35;21.50;99.90
20526;DHT22;10421;49.142;9.232;2023-07-30T06:31:03;21.50;99.90
20526;DHT22;10421;49.142;9.232;2023-07-30T06:33:30;21.50;99.90
20526;DHT22;10421;49.142;9.232;2023-07-30T06:35:57;21.50;99.90
20526;DHT22;10421;49.142;9.232;2023-07-30T06:38:23;21.40;99.90
20526;DHT22;10421;49.142;9.232;2023-07-30T06:40:50;21.40;99.90
20526;DHT22;10421;49.142;9.232;2023-07-30T06:43:17;21.60;99.90
20526;DHT22;10421;49.142;9.232;2023-07-30T06:45:44;21.60;99.90
20526;DHT22;10421;49.142;9.232;2023-07-30T06:48:12;21.70;99.90
20526;DHT22;10421;49.142;9.232;2023-07-30T06:50:40;21.80;99.90
20526;DHT22;10421;49.142;9.232;2023-07-30T06:53:07;21.80;99.90
20526;DHT22;10421;49.142;9.232;2023-07-30T06:55:34;21.70;99.90
20526;DHT22;10421;49.142;9.232;2023-07-30T06:58:00;21.70;99.90
20526;DHT22;10421;49.142;9.232;2023-07-30T07:00:27;21.70;99.90
20526;DHT22;10421;49.142;9.232;2023-07-30T07:02:54;21.70;99.90
20526;DHT22;10421;49.142;9.232;2023-07-30T07:05:22;21.60;99.90
20526;DHT22;10421;49.142;9.232;2023-07-30T07:07:49;21.60;99.90
20526;DHT22;10421;49.142;9.232;2023-07-30T07:10:16;21.60;99.90
20526;DHT22;10421;49.142;9.232;2023-07-30T07:12:42;21.60;99.90
20526;DHT22;10421;49.142;9.232;2023-07-30T07:15:09;21.70;99.90
20526;DHT22;10421;49.142;9.232;2023-07-30T07:17:36;21.70;99.90
20526;DHT22;10421;49.142;9.232;2023-07-30T07:20:03;21.80;99.90
20526;DHT22;10421;49.142;9.232;2023-07-30T07:22:33;21.90;99.90
20526;DHT22;10421;49.142;9.232;2023-07-30T07:25:00;22.00;99.90
20526;DHT22;10421;49.142;9.232;2023-07-30T07:27:27;22.10;99.90
20526;DHT22;10421;49.142;9.232;2023-07-30T07:29:54;22.20;99.90
20526;DHT22;10421;49.142;9.232;2023-07-30T07:32:21;22.20;99.90
20526;DHT22;10421;49.142;9.232;2023-07-30T07:34:48;22.10;99.90
20526;DHT22;10421;49.142;9.232;2023-07-30T07:37:15;22.10;99.90
20526;DHT22;10421;49.142;9.232;2023-07-30T07:39:45;22.00;99.90
20526;DHT22;10421;49.142;9.232;2023-07-30T07:42:12;21.90;99.90
20526;DHT22;10421;49.142;9.232;2023-07-30T07:44:38;21.90;99.90
20526;DHT22;10421;49.142;9.232;2023-07-30T07:47:05;22.00;99.90
20526;DHT22;10421;49.142;9.232;2023-07-30T07:49:32;22.00;99.90
20526;DHT22;10421;49.142;9.232;2023-07-30T07:51:59;22.00;99.90
20526;DHT22;10421;49.142;9.232;2023-07-30T07:54:25;21.90;99.90
20526;DHT22;10421;49.142;9.232;2023-07-30T07:56:53;21.90;99.90
20526;DHT22;10421;49.142;9.232;2023-07-30T07:59:20;21.80;99.90
20526;DHT22;10421;49.142;9.232;2023-07-30T08:01:47;21.70;99.90
20526;DHT22;10421;49.142;9.232;2023-07-30T08:04:13;21.50;99.90
20526;DHT22;10421;49.142;9.232;2023-07-30T08:06:40;21.40;99.90
20526;DHT22;10421;49.142;9.232;2023-07-30T08:09:08;21.20;99.90
20526;DHT22;10421;49.142;9.232;2023-07-30T08:11:35;21.10;99.90
20526;DHT22;10421;49.142;9.232;2023-07-30T08:14:03;21.00;99.90
20526;DHT22;10421;49.142;9.232;2023-07-30T08:16:30;21.10;99.90
20526;DHT22;10421;49.142;9.232;2023-07-30T08:18:56;21.10;99.90
20526;DHT22;10421;49.142;9.232;2023-07-30T08:21:23;21.20;99.90
20526;DHT22;10421;49.142;9.232;2023-07-30T08:23:50;21.20;99.90
20526;DHT22;10421;49.142;9.232;2023-07-30T08:26:16;21.10;99.90
20526;DHT22;10421;49.142;9.232;2023-07-30T08:28:43;21.10;99.90
20526;DHT22;10421;49.142;9.232;2023-07-30T08:31:11;21.20;99.90
20526;DHT22;10421;49.142;9.232;2023-07-30T08:33:38;21.20;99.90
20526;DHT22;10421;49.142;9.232;2023-07-30T08:36:04;21.20;99.90
20526;DHT22;10421;49.142;9.232;2023-07-30T08:38:31;21.30;99.90
20526;DHT22;10421;49.142;9.232;2023-07-30T08:40:58;21.40;99.90
20526;DHT22;10421;49.142;9.232;2023-07-30T08:43:25;21.50;99.90
20526;DHT22;10421;49.142;9.232;2023-07-30T08:45:52;21.60;99.90
20526;DHT22;10421;49.142;9.232;2023-07-30T08:48:20;21.60;99.90
20526;DHT22;10421;49.142;9.232;2023-07-30T08:50:48;21.60;99.90
20526;DHT22;10421;49.142;9.232;2023-07-30T08:53:15;21.60;99.90
20526;DHT22;10421;49.142;9.232;2023-07-30T08:55:42;21.70;99.90
20526;DHT22;10421;49.142;9.232;2023-07-30T08:58:09;21.70;99.90
20526;DHT22;10421;49.142;9.232;2023-07-30T09:00:37;21.90;99.90
20526;DHT22;10421;49.142;9.232;2023-07-30T09:03:05;21.90;99.90
20526;DHT22;10421;49.142;9.232;2023-07-30T09:05:34;22.10;99.90
20526;DHT22;10421;49.142;9.232;2023-07-30T09:08:00;22.10;99.90
20526;DHT22;10421;49.142;9.232;2023-07-30T09:10:27;22.20;99.90
20526;DHT22;10421;49.142;9.232;2023-07-30T09:12:54;22.30;99.90
20526;DHT22;10421;49.142;9.232;2023-07-30T09:15:29;22.40;99.90
20526;DHT22;10421;49.142;9.232;2023-07-30T09:17:57;22.40;99.90
20526;DHT22;10421;49.142;9.232;2023-07-30T09:20:24;22.60;99.90
20526;DHT22;10421;49.142;9.232;2023-07-30T09:22:52;22.90;99.90
20526;DHT22;10421;49.142;9.232;2023-07-30T09:25:19;23.00;99.90
20526;DHT22;10421;49.142;9.232;2023-07-30T09:27:48;23.10;99.90
20526;DHT22;10421;49.142;9.232;2023-07-30T09:30:15;23.10;99.90
20526;DHT22;10421;49.142;9.232;2023-07-30T09:32:51;23.20;99.90
20526;DHT22;10421;49.142;9.232;2023-07-30T09:35:17;23.30;99.90
20526;DHT22;10421;49.142;9.232;2023-07-30T09:37:45;23.40;99.90
20526;DHT22;10421;49.142;9.232;2023-07-30T09:40:15;23.40;99.90
20526;DHT22;10421;49.142;9.232;2023-07-30T09:42:43;23.50;99.90
20526;DHT22;10421;49.142;9.232;2023-07-30T09:45:17;23.50;99.90
20526;DHT22;10421;49.142;9.232;2023-07-30T09:47:46;23.50;99.90
20526;DHT22;10421;49.142;9.232;2023-07-30T09:50:14;23.60;99.90
20526;DHT22;10421;49.142;9.232;2023-07-30T09:52:41;23.70;99.90
20526;DHT22;10421;49.142;9.232;2023-07-30T09:55:08;23.70;99.90
20526;DHT22;10421;49.142;9.232;2023-07-30T09:57:37;23.60;99.90
20526;DHT22;10421;49.142;9.232;2023-07-30T10:00:05;23.60;99.90
20526;DHT22;10421;49.142;9.232;2023-07-30T10:02:38;23.50;99.90
20526;DHT22;10421;49.142;9.232;2023-07-30T10:05:10;23.50;99.90
20526;DHT22;10421;49.142;9.232;2023-07-30T10:07:39;23.60;99.90
20526;DHT22;10421;49.142;9.232;2023-07-30T10:10:09;23.70;99.90
20526;DHT22;10421;49.142;9.232;2023-07-30T10:12:38;23.90;99.90
20526;DHT22;10421;49.142;9.232;2023-07-30T10:15:07;23.90;99.90
20526;DHT22;10421;49.142;9.232;2023-07-30T10:17:34;24.00;99.90
20526;DHT22;10421;49.142;9.232;2023-07-30T10:20:19;24.00;99.90
20526;DHT22;10421;49.142;9.232;2023-07-30T10:22:47;23.90;99.90
20526;DHT22;10421;49.142;9.232;2023-07-30T10:25:20;24.00;99.90
20526;DHT22;10421;49.142;9.232;2023-07-30T10:27:51;24.00;99.90
20526;DHT22;10421;49.142;9.232;2023-07-30T10:30:20;24.10;99.90
20526;DHT22;10421;49.142;9.232;2023-07-30T10:33:08;24.20;99.20
20526;DHT22;10421;49.142;9.232;2023-07-30T10:35:39;24.40;98.90
20526;DHT22;10421;49.142;9.232;2023-07-30T10:38:16;24.60;98.70
20526;DHT22;10421;49.142;9.232;2023-07-30T10:41:02;24.70;98.00
20526;DHT22;10421;49.142;9.232;2023-07-30T10:43:32;24.60;97.40
20526;DHT22;10421;49.142;9.232;2023-07-30T10:46:00;24.60;97.50
20526;DHT22;10421;49.142;9.232;2023-07-30T10:48:31;24.60;97.20
20526;DHT22;10421;49.142;9.232;2023-07-30T10:50:59;24.70;97.20
20526;DHT22;10421;49.142;9.232;2023-07-30T10:53:25;24.70;96.40
20526;DHT22;10421;49.142;9.232;2023-07-30T10:55:52;24.80;96.70
20526;DHT22;10421;49.142;9.232;2023-07-30T10:58:21;24.90;96.40
20526;DHT22;10421;49.142;9.232;2023-07-30T11:00:50;25.00;96.40
20526;DHT22;10421;49.142;9.232;2023-07-30T11:03:16;25.00;95.80
20526;DHT22;10421;49.142;9.232;2023-07-30T11:05:46;24.90;96.10
20526;DHT22;10421;49.142;9.232;2023-07-30T11:08:14;24.80;96.30
20526;DHT22;10421;49.142;9.232;2023-07-30T11:10:45;24.80;96.80
20526;DHT22;10421;49.142;9.232;2023-07-30T11:13:12;24.90;96.80
20526;DHT22;10421;49.142;9.232;2023-07-30T11:15:43;25.00;96.40
20526;DHT22;10421;49.142;9.232;2023-07-30T11:18:11;25.10;96.80
20526;DHT22;10421;49.142;9.232;2023-07-30T11:20:38;25.20;96.50
20526;DHT22;10421;49.142;9.232;2023-07-30T11:23:19;25.00;96.80
20526;DHT22;10421;49.142;9.232;2023-07-30T11:25:47;25.00;96.70
20526;DHT22;10421;49.142;9.232;2023-07-30T11:28:15;25.00;96.50
20526;DHT22;10421;49.142;9.232;2023-07-30T11:30:42;25.00;96.70
20526;DHT22;10421;49.142;9.232;2023-07-30T11:33:16;25.00;96.30
20526;DHT22;10421;49.142;9.232;2023-07-30T11:35:43;24.90;95.60
20526;DHT22;10421;49.142;9.232;2023-07-30T11:38:10;24.80;95.10
20526;DHT22;10421;49.142;9.232;2023-07-30T11:40:38;24.60;95.20
20526;DHT22;10421;49.142;9.232;2023-07-30T11:43:05;24.50;94.90
20526;DHT22;10421;49.142;9.232;2023-07-30T11:45:32;24.40;94.90
20526;DHT22;10421;49.142;9.232;2023-07-30T11:48:06;24.30;95.10
20526;DHT22;10421;49.142;9.232;2023-07-30T11:50:47;24.40;95.00
20526;DHT22;10421;49.142;9.232;2023-07-30T11:53:14;24.30;94.60
20526;DHT22;10421;49.142;9.232;2023-07-30T11:55:42;24.30;94.50
20526;DHT22;10421;49.142;9.232;2023-07-30T11:58:11;24.30;95.00
20526;DHT22;10421;49.142;9.232;2023-07-30T12:00:38;24.30;94.30
20526;DHT22;10421;49.142;9.232;2023-07-30T12:03:09;24.30;93.80
20526;DHT22;10421;49.142;9.232;2023-07-30T12:05:37;24.20;92.60
20526;DHT22;10421;49.142;9.232;2023-07-30T12:08:12;24.30;92.70
20526;DHT22;10421;49.142;9.232;2023-07-30T12:10:43;24.30;91.80
20526;DHT22;10421;49.142;9.232;2023-07-30T12:13:15;24.40;91.90
20526;DHT22;10421;49.142;9.232;2023-07-30T12:15:44;24.50;92.10
20526;DHT22;10421;49.142;9.232;2023-07-30T12:18:11;24.60;92.10
20526;DHT22;10421;49.142;9.232;2023-07-30T12:20:37;24.70;92.20
20526;DHT22;10421;49.142;9.232;2023-07-30T12:23:05;24.80;92.00
20526;DHT22;10421;49.142;9.232;2023-07-30T12:25:32;24.90;92.20
20526;DHT22;10421;49.142;9.232;2023-07-30T12:27:59;25.10;92.10
20526;DHT22;10421;49.142;9.232;2023-07-30T12:30:26;25.20;90.80
20526;DHT22;10421;49.142;9.232;2023-07-30T12:32:54;25.20;90.40
20526;DHT22;10421;49.142;9.232;2023-07-30T12:35:20;25.20;90.30
20526;DHT22;10421;49.142;9.232;2023-07-30T12:37:47;25.40;90.20
20526;DHT22;10421;49.142;9.232;2023-07-30T12:40:16;25.50;90.10
20526;DHT22;10421;49.142;9.232;2023-07-30T12:42:42;25.60;90.00
20526;DHT22;10421;49.142;9.232;2023-07-30T12:45:10;25.70;90.20
20526;DHT22;10421;49.142;9.232;2023-07-30T12:47:36;25.90;89.50
20526;DHT22;10421;49.142;9.232;2023-07-30T12:50:04;26.20;89.90
20526;DHT22;10421;49.142;9.232;2023-07-30T12:52:32;26.40;89.20
20526;DHT22;10421;49.142;9.232;2023-07-30T12:54:59;26.50;87.20
20526;DHT22;10421;49.142;9.232;2023-07-30T12:57:29;26.50;86.00
20526;DHT22;10421;49.142;9.232;2023-07-30T12:59:57;26.60;84.80
20526;DHT22;10421;49.142;9.232;2023-07-30T13:02:24;26.70;83.90
20526;DHT22;10421;49.142;9.232;2023-07-30T13:04:51;26.70;83.50
20526;DHT22;10421;49.142;9.232;2023-07-30T13:07:17;26.80;82.50
20526;DHT22;10421;49.142;9.232;2023-07-30T13:09:45;26.80;82.30
20526;DHT22;10421;49.142;9.232;2023-07-30T13:12:12;26.90;82.10
20526;DHT22;10421;49.142;9.232;2023-07-30T13:14:40;26.80;80.30
20526;DHT22;10421;49.142;9.232;2023-07-30T13:17:07;26.70;81.20
20526;DHT22;10421;49.142;9.232;2023-07-30T13:19:33;26.60;80.60
20526;DHT22;10421;49.142;9.232;2023-07-30T13:22:00;26.40;80.60
20526;DHT22;10421;49.142;9.232;2023-07-30T13:24:27;26.40;78.60
20526;DHT22;10421;49.142;9.232;2023-07-30T13:26:57;26.50;76.90
20526;DHT22;10421;49.142;9.232;2023-07-30T13:29:23;26.20;76.20
20526;DHT22;10421;49.142;9.232;2023-07-30T13:31:52;26.00;75.60
20526;DHT22;10421;49.142;9.232;2023-07-30T13:34:18;26.00;75.40
20526;DHT22;10421;49.142;9.232;2023-07-30T13:36:45;26.00;76.70
20526;DHT22;10421;49.142;9.232;2023-07-30T13:39:12;26.10;75.80
20526;DHT22;10421;49.142;9.232;2023-07-30T13:41:39;26.00;75.00
20526;DHT22;10421;49.142;9.232;2023-07-30T13:44:05;25.90;75.90
20526;DHT22;10421;49.142;9.232;2023-07-30T13:46:32;26.00;76.00
20526;DHT22;10421;49.142;9.232;2023-07-30T13:49:00;26.10;75.20
20526;DHT22;10421;49.142;9.232;2023-07-30T13:51:27;26.10;76.30
20526;DHT22;10421;49.142;9.232;2023-07-30T13:53:58;26.20;76.40
20526;DHT22;10421;49.142;9.232;2023-07-30T13:56:24;26.40;75.60
20526;DHT22;10421;49.142;9.232;2023-07-30T13:58:51;26.50;75.90
20526;DHT22;10421;49.142;9.232;2023-07-30T14:01:18;26.60;76.00
20526;DHT22;10421;49.142;9.232;2023-07-30T14:03:45;26.70;75.60
20526;DHT22;10421;49.142;9.232;2023-07-30T14:06:13;26.70;74.80
20526;DHT22;10421;49.142;9.232;2023-07-30T14:08:40;26.60;74.90
20526;DHT22;10421;49.142;9.232;2023-07-30T14:11:07;26.50;76.30
20526;DHT22;10421;49.142;9.232;2023-07-30T14:13:33;26.50;77.00
20526;DHT22;10421;49.142;9.232;2023-07-30T14:16:00;26.60;76.70
20526;DHT22;10421;49.142;9.232;2023-07-30T14:18:29;26.60;76.30
20526;DHT22;10421;49.142;9.232;2023-07-30T14:20:56;26.60;76.00
20526;DHT22;10421;49.142;9.232;2023-07-30T14:23:24;26.70;76.00
20526;DHT22;10421;49.142;9.232;2023-07-30T14:25:51;26.90;75.90
20526;DHT22;10421;49.142;9.232;2023-07-30T14:28:18;26.90;76.50
20526;DHT22;10421;49.142;9.232;2023-07-30T14:30:44;27.10;75.50
20526;DHT22;10421;49.142;9.232;2023-07-30T14:33:11;27.10;74.90
20526;DHT22;10421;49.142;9.232;2023-07-30T14:35:38;27.10;74.10
20526;DHT22;10421;49.142;9.232;2023-07-30T14:38:05;26.90;75.00
20526;DHT22;10421;49.142;9.232;2023-07-30T14:40:36;26.90;74.90
20526;DHT22;10421;49.142;9.232;2023-07-30T14:43:03;26.90;74.60
20526;DHT22;10421;49.142;9.232;2023-07-30T14:45:30;26.90;73.80
20526;DHT22;10421;49.142;9.232;2023-07-30T14:47:56;26.90;73.50
20526;DHT22;10421;49.142;9.232;2023-07-30T14:50:23;27.00;73.60
20526;DHT22;10421;49.142;9.232;2023-07-30T14:52:50;27.10;73.40
20526;DHT22;10421;49.142;9.232;2023-07-30T14:55:17;27.20;72.80
20526;DHT22;10421;49.142;9.232;2023-07-30T14:57:45;27.20;69.30
20526;DHT22;10421;49.142;9.232;2023-07-30T15:00:12;27.20;68.70
20526;DHT22;10421;49.142;9.232;2023-07-30T15:02:42;27.10;65.90
20526;DHT22;10421;49.142;9.232;2023-07-30T15:05:09;26.70;65.50
20526;DHT22;10421;49.142;9.232;2023-07-30T15:07:36;26.50;65.40
20526;DHT22;10421;49.142;9.232;2023-07-30T15:10:03;26.40;67.20
20526;DHT22;10421;49.142;9.232;2023-07-30T15:12:30;26.20;66.90
20526;DHT22;10421;49.142;9.232;2023-07-30T15:14:58;26.20;66.80
20526;DHT22;10421;49.142;9.232;2023-07-30T15:17:24;26.00;67.50
20526;DHT22;10421;49.142;9.232;2023-07-30T15:19:51;26.10;67.80
20526;DHT22;10421;49.142;9.232;2023-07-30T15:22:20;26.20;67.10
20526;DHT22;10421;49.142;9.232;2023-07-30T15:24:47;26.20;66.50
20526;DHT22;10421;49.142;9.232;2023-07-30T15:27:14;26.30;67.00
20526;DHT22;10421;49.142;9.232;2023-07-30T15:29:40;26.40;67.20
20526;DHT22;10421;49.142;9.232;2023-07-30T15:32:08;26.30;65.10
20526;DHT22;10421;49.142;9.232;2023-07-30T15:34:35;26.20;63.80